Time;durP1;ratioP1;P1;durP2;ratioP2;P2;SDS_P1;SDS_P2;PMS_P1;PMS_P2;Temp;Humidity;BMP_temperature;BMP_pressure;BME280_temperature;BME280_humidity;BME280_pressure;Samples;Min_cycle;Max_cycle;Signal;HPM_P1;HPM_P2
2023/05/01 00:00:05;;;;;;;0.67;0.40;;;12.90;86.50;;;;;;5064319;28;20026;-86
2023/05/01 00:02:31;;;;;;;0.38;0.38;;;12.90;87.20;;;;;;5057325;28;20025;-84
2023/05/01 00:04:56;;;;;;;0.20;0.20;;;12.80;87.10;;;;;;5054919;28;20036;-87
2023/05/01 00:07:24;;;;;;;0.17;0.17;;;12.80;87.10;;;;;;5058516;28;20614;-82
2023/05/01 00:09:50;;;;;;;0.20;0.20;;;12.80;87.50;;;;;;5060002;28;20032;-85
2023/05/01 00:12:16;;;;;;;0.50;0.50;;;12.70;87.60;;;;;;5059298;28;21028;-87
2023/05/01 00:14:42;;;;;;;0.10;0.10;;;12.70;88.70;;;;;;5057128;28;20194;-85
2023/05/01 00:17:08;;;;;;;0.10;0.10;;;12.60;88.60;;;;;;5046021;28;20342;-82
2023/05/01 00:19:33;;;;;;;0.10;0.10;;;12.60;89.20;;;;;;5063649;28;20544;-83
2023/05/01 00:21:59;;;;;;;0.22;0.22;;;12.60;89.70;;;;;;5045711;28;20032;-82
2023/05/01 00:24:25;;;;;;;0.10;0.10;;;12.60;89.20;;;;;;5063579;28;20035;-85
2023/05/01 00:26:50;;;;;;;0.17;0.17;;;12.60;88.90;;;;;;5056258;28;20037;-86
2023/05/01 00:29:16;;;;;;;0.10;0.10;;;12.60;88.90;;;;;;5062890;28;20025;-87
2023/05/01 00:31:42;;;;;;;0.27;0.27;;;12.50;89.00;;;;;;5047242;28;20025;-83
2023/05/01 00:34:10;;;;;;;0.75;0.63;;;12.50;89.30;;;;;;5063345;28;20106;-81
2023/05/01 00:36:36;;;;;;;0.20;0.20;;;12.40;89.70;;;;;;5058374;28;20028;-83
2023/05/01 00:39:01;;;;;;;0.40;0.40;;;12.50;90.30;;;;;;5063953;28;20021;-82
2023/05/01 00:41:27;;;;;;;0.17;0.17;;;12.40;90.40;;;;;;5060988;28;20033;-84
2023/05/01 00:43:53;;;;;;;0.33;0.33;;;12.30;90.60;;;;;;5063882;28;20029;-83
2023/05/01 00:46:18;;;;;;;0.00;0.00;;;12.20;90.70;;;;;;5062918;28;20107;-86
2023/05/01 00:48:44;;;;;;;0.30;0.30;;;12.30;90.80;;;;;;5044093;28;20029;-85
2023/05/01 00:51:11;;;;;;;0.10;0.10;;;12.40;90.50;;;;;;5060408;28;20063;-84
2023/05/01 00:53:40;;;;;;;0.20;0.20;;;12.60;90.40;;;;;;5063387;28;20036;-83
2023/05/01 00:56:07;;;;;;;0.50;0.50;;;12.70;90.40;;;;;;5059361;28;20053;-85
2023/05/01 00:58:33;;;;;;;;;;;12.80;90.30;;;;;;5043612;28;20846;-85
2023/05/01 01:00:58;;;;;;;0.10;0.10;;;12.90;90.20;;;;;;5051714;28;19954;-84
2023/05/01 01:03:24;;;;;;;0.08;0.08;;;12.90;90.10;;;;;;5059806;28;20033;-89
2023/05/01 01:06:03;;;;;;;0.20;0.20;;;12.90;90.30;;;;;;5051639;28;20028;-89
2023/05/01 01:08:35;;;;;;;0.10;0.10;;;12.90;90.30;;;;;;5059220;28;20663;-86
2023/05/01 01:11:07;;;;;;;0.55;0.30;;;13.00;90.30;;;;;;5036077;28;20028;-87
2023/05/01 01:13:45;;;;;;;0.10;0.10;;;13.10;90.00;;;;;;5057048;28;20052;-85
2023/05/01 01:16:44;;;;;;;1.85;0.45;;;13.10;90.00;;;;;;5054958;28;20035;-90
2023/05/01 01:19:27;;;;;;;2.72;0.65;;;13.00;90.70;;;;;;5053268;28;20017;-87
2023/05/01 01:21:57;;;;;;;0.20;0.20;;;13.10;91.00;;;;;;5039964;28;20024;-86
2023/05/01 01:24:44;;;;;;;0.10;0.10;;;13.10;90.80;;;;;;5062536;28;20025;-86
2023/05/01 01:27:45;;;;;;;0.10;0.10;;;13.00;90.90;;;;;;5062823;28;20045;-86
2023/05/01 01:30:50;;;;;;;0.10;0.10;;;12.90;91.30;;;;;;5053919;28;20024;-89
2023/05/01 01:33:34;;;;;;;0.20;0.20;;;12.80;91.70;;;;;;5058255;28;20070;-86
2023/05/01 01:36:06;;;;;;;0.10;0.10;;;12.70;92.30;;;;;;5063084;28;20020;-89
2023/05/01 01:39:07;;;;;;;0.40;0.40;;;12.60;92.50;;;;;;5040498;28;20032;-86
2023/05/01 01:41:35;;;;;;;0.63;0.47;;;12.60;92.20;;;;;;5061885;28;20037;-86
2023/05/01 01:44:06;;;;;;;0.15;0.15;;;12.70;92.20;;;;;;5062229;28;20034;-85
2023/05/01 01:46:36;;;;;;;0.10;0.10;;;12.80;92.30;;;;;;5061723;28;20032;-83
2023/05/01 01:49:08;;;;;;;0.20;0.20;;;12.70;92.20;;;;;;5060899;28;20039;-81
2023/05/01 01:51:36;;;;;;;0.50;0.50;;;12.80;92.50;;;;;;5058976;28;20535;-82
2023/05/01 01:54:03;;;;;;;0.10;0.10;;;12.70;92.50;;;;;;5059035;28;20029;-83
2023/05/01 01:56:31;;;;;;;;;;;12.70;92.70;;;;;;5040391;28;20080;-86
2023/05/01 01:59:00;;;;;;;0.10;0.10;;;12.80;92.60;;;;;;5058400;28;19908;-83
2023/05/01 02:01:26;;;;;;;0.10;0.10;;;12.80;93.00;;;;;;5055737;28;20078;-86
2023/05/01 02:03:54;;;;;;;0.10;0.10;;;12.70;93.60;;;;;;5056317;28;20077;-83
2023/05/01 02:06:22;;;;;;;0.20;0.20;;;12.70;93.70;;;;;;5057035;28;20900;-91
2023/05/01 02:08:49;;;;;;;0.75;0.75;;;12.70;93.80;;;;;;5057403;28;20067;-86
2023/05/01 02:11:20;;;;;;;0.52;0.52;;;12.80;94.30;;;;;;5059817;28;20730;-87
2023/05/01 02:13:48;;;;;;;0.10;0.10;;;12.70;94.30;;;;;;5054301;28;20036;-88
2023/05/01 02:16:15;;;;;;;0.10;0.10;;;12.80;94.20;;;;;;5038293;28;20032;-87
2023/05/01 02:18:41;;;;;;;0.20;0.20;;;12.60;95.00;;;;;;5052069;28;20025;-83
2023/05/01 02:21:09;;;;;;;0.10;0.10;;;12.60;94.80;;;;;;5055519;28;20024;-83
2023/05/01 02:23:36;;;;;;;0.10;0.10;;;12.60;94.80;;;;;;5069393;28;20020;-91
2023/05/01 02:26:03;;;;;;;;;;;12.60;94.80;;;;;;5062460;28;20050;-86
2023/05/01 02:28:29;;;;;;;0.55;0.55;;;12.60;94.60;;;;;;5060251;28;19974;-85
2023/05/01 02:30:56;;;;;;;0.28;0.28;;;12.60;94.30;;;;;;5061098;28;21042;-86
2023/05/01 02:33:22;;;;;;;0.10;0.10;;;12.50;94.50;;;;;;5059095;28;20082;-85
2023/05/01 02:35:48;;;;;;;0.30;0.30;;;12.50;94.90;;;;;;5056521;28;20037;-86
2023/05/01 02:38:15;;;;;;;0.15;0.15;;;12.50;95.00;;;;;;5055379;28;20057;-88
2023/05/01 02:40:45;;;;;;;0.82;0.82;;;12.50;95.20;;;;;;5056246;28;20035;-86
2023/05/01 02:43:14;;;;;;;0.32;0.32;;;12.50;95.40;;;;;;5060908;28;20024;-84
2023/05/01 02:45:41;;;;;;;0.30;0.30;;;12.50;95.50;;;;;;5061208;28;20029;-83
2023/05/01 02:48:10;;;;;;;0.40;0.40;;;12.50;95.90;;;;;;5059427;28;20801;-79
2023/05/01 02:50:39;;;;;;;0.10;0.10;;;12.40;96.40;;;;;;5062032;28;20074;-85
2023/05/01 02:53:06;;;;;;;0.13;0.13;;;12.40;96.70;;;;;;5057689;28;20032;-84
2023/05/01 02:55:32;;;;;;;0.30;0.30;;;12.40;97.10;;;;;;5059075;28;20035;-82
2023/05/01 02:57:58;;;;;;;0.17;0.17;;;12.30;97.70;;;;;;5049303;28;20071;-81
2023/05/01 03:00:25;;;;;;;0.30;0.30;;;12.40;98.10;;;;;;5058299;28;20637;-79
2023/05/01 03:02:51;;;;;;;0.20;0.20;;;12.50;98.20;;;;;;5059247;28;20108;-82
2023/05/01 03:05:16;;;;;;;0.30;0.30;;;12.30;98.70;;;;;;5057519;28;20024;-83
2023/05/01 03:07:42;;;;;;;2.00;1.35;;;12.40;98.80;;;;;;5035492;28;20125;-82
2023/05/01 03:10:08;;;;;;;0.22;0.22;;;12.40;98.80;;;;;;5060098;28;20032;-80
2023/05/01 03:12:34;;;;;;;0.45;0.30;;;12.50;98.90;;;;;;5051489;28;20033;-82
2023/05/01 03:14:59;;;;;;;0.20;0.20;;;12.50;99.70;;;;;;5056294;28;20116;-81
2023/05/01 03:17:26;;;;;;;0.50;0.50;;;12.50;99.90;;;;;;5043013;28;20033;-84
2023/05/01 03:19:51;;;;;;;0.70;0.70;;;12.50;99.90;;;;;;5055633;28;20021;-81
2023/05/01 03:22:17;;;;;;;0.43;0.43;;;12.50;99.90;;;;;;5059077;28;20039;-84
2023/05/01 03:24:43;;;;;;;0.10;0.10;;;12.50;99.90;;;;;;5058737;28;20028;-81
2023/05/01 03:27:08;;;;;;;0.93;0.73;;;12.50;99.90;;;;;;5063360;28;20033;-82
2023/05/01 03:29:36;;;;;;;0.13;0.13;;;12.50;99.90;;;;;;5046656;28;20025;-84
2023/05/01 03:32:02;;;;;;;0.20;0.20;;;12.50;99.90;;;;;;5061884;28;20059;-82
2023/05/01 03:34:28;;;;;;;0.20;0.20;;;12.60;99.90;;;;;;5058784;28;20029;-81
2023/05/01 03:36:55;;;;;;;0.20;0.20;;;12.50;99.90;;;;;;5059171;28;20025;-88
2023/05/01 03:39:20;;;;;;;0.57;0.57;;;12.30;99.90;;;;;;5061002;28;20541;-85
2023/05/01 03:41:46;;;;;;;0.70;0.70;;;12.30;99.90;;;;;;5063148;28;20263;-85
2023/05/01 03:44:12;;;;;;;0.13;0.13;;;12.30;99.90;;;;;;5063751;28;20698;-85
2023/05/01 03:46:37;;;;;;;0.30;0.30;;;12.10;99.90;;;;;;5063698;28;20088;-81
2023/05/01 03:49:03;;;;;;;5.53;0.77;;;12.10;99.90;;;;;;5063642;28;20387;-84
2023/05/01 03:51:29;;;;;;;0.30;0.30;;;12.00;99.90;;;;;;5062350;28;20044;-88
2023/05/01 03:53:58;;;;;;;0.47;0.47;;;12.00;99.90;;;;;;5061119;28;20036;-83
2023/05/01 03:56:25;;;;;;;0.30;0.30;;;11.90;99.90;;;;;;5061783;28;20068;-85
2023/05/01 03:58:51;;;;;;;0.20;0.20;;;11.90;99.90;;;;;;5044772;28;20017;-87
2023/05/01 04:01:18;;;;;;;0.10;0.10;;;11.90;99.90;;;;;;5060443;28;20129;-84
2023/05/01 04:03:44;;;;;;;0.68;0.68;;;11.90;99.90;;;;;;5043349;28;20028;-83
2023/05/01 04:06:11;;;;;;;0.10;0.10;;;11.90;99.90;;;;;;5059095;28;20090;-84
2023/05/01 04:08:36;;;;;;;0.10;0.10;;;12.00;99.90;;;;;;5060470;28;20029;-86
2023/05/01 04:11:02;;;;;;;0.70;0.70;;;12.10;99.90;;;;;;5058511;28;20025;-84
2023/05/01 04:13:28;;;;;;;0.30;0.30;;;12.10;99.90;;;;;;5063893;28;20142;-83
2023/05/01 04:15:54;;;;;;;0.10;0.10;;;12.20;99.90;;;;;;5059214;28;20028;-84
2023/05/01 04:18:20;;;;;;;0.28;0.28;;;12.10;99.90;;;;;;5063376;28;20028;-80
2023/05/01 04:20:46;;;;;;;0.28;0.28;;;12.20;99.90;;;;;;5052810;28;20040;-84
2023/05/01 04:23:11;;;;;;;0.85;0.85;;;12.20;99.90;;;;;;5062328;28;20101;-82
2023/05/01 04:25:37;;;;;;;0.87;0.87;;;12.10;99.90;;;;;;5044901;28;20110;-81
2023/05/01 04:28:04;;;;;;;0.67;0.67;;;12.10;99.90;;;;;;5062451;28;20515;-84
2023/05/01 04:30:30;;;;;;;0.10;0.10;;;12.10;99.90;;;;;;5057846;28;20021;-88
2023/05/01 04:32:57;;;;;;;0.10;0.10;;;12.40;99.90;;;;;;5059864;28;20068;-86
2023/05/01 04:35:23;;;;;;;;;;;12.40;99.90;;;;;;5056654;28;20029;-84
2023/05/01 04:37:49;;;;;;;0.20;0.20;;;12.30;99.90;;;;;;5057804;28;19917;-86
2023/05/01 04:40:15;;;;;;;0.10;0.10;;;12.20;99.90;;;;;;5042273;28;20371;-83
2023/05/01 04:42:41;;;;;;;0.57;0.57;;;12.20;99.90;;;;;;5064791;28;20127;-84
2023/05/01 04:45:07;;;;;;;0.10;0.10;;;12.40;99.90;;;;;;5063448;28;20044;-90
2023/05/01 04:47:33;;;;;;;0.10;0.10;;;12.50;99.90;;;;;;5044653;28;20068;-86
2023/05/01 04:49:58;;;;;;;1.70;0.90;;;12.40;99.90;;;;;;5058165;28;20060;-86
2023/05/01 04:52:24;;;;;;;0.40;0.40;;;12.30;99.90;;;;;;5058094;28;20103;-86
2023/05/01 04:54:50;;;;;;;8.38;0.45;;;12.40;99.90;;;;;;5059915;28;20107;-84
2023/05/01 04:57:15;;;;;;;0.10;0.10;;;12.40;99.90;;;;;;5058335;28;20435;-84
2023/05/01 04:59:42;;;;;;;0.10;0.10;;;12.40;99.90;;;;;;5058473;28;20468;-82
2023/05/01 05:02:07;;;;;;;0.20;0.20;;;12.50;99.90;;;;;;5059754;28;20031;-82
2023/05/01 05:04:33;;;;;;;0.43;0.43;;;12.50;99.90;;;;;;5057408;28;20032;-83
2023/05/01 05:06:59;;;;;;;0.23;0.23;;;12.50;99.90;;;;;;5056193;28;20028;-86
2023/05/01 05:09:25;;;;;;;0.20;0.20;;;12.50;99.90;;;;;;5056920;28;20032;-88
2023/05/01 05:11:50;;;;;;;0.40;0.40;;;12.50;99.90;;;;;;5037386;28;20094;-84
2023/05/01 05:14:16;;;;;;;0.10;0.10;;;12.50;99.90;;;;;;5052933;28;20035;-84
2023/05/01 05:16:42;;;;;;;0.47;0.47;;;12.50;99.90;;;;;;5057765;28;20033;-86
2023/05/01 05:19:07;;;;;;;0.40;0.40;;;12.50;99.90;;;;;;5057030;28;20053;-82
2023/05/01 05:21:34;;;;;;;0.47;0.47;;;12.50;99.90;;;;;;5056165;28;20405;-84
2023/05/01 05:24:00;;;;;;;0.47;0.45;;;12.50;99.90;;;;;;5062117;28;20020;-84
2023/05/01 05:26:26;;;;;;;0.08;0.08;;;12.50;99.90;;;;;;5042261;28;20471;-86
2023/05/01 05:28:52;;;;;;;0.30;0.30;;;12.60;99.90;;;;;;5056382;28;20592;-82
2023/05/01 05:31:17;;;;;;;0.40;0.40;;;12.70;99.90;;;;;;5055758;28;20045;-83
2023/05/01 05:33:43;;;;;;;0.38;0.38;;;12.70;99.90;;;;;;5058780;28;20033;-81
2023/05/01 05:36:09;;;;;;;0.20;0.20;;;12.80;99.90;;;;;;5049948;28;20025;-88
2023/05/01 05:38:35;;;;;;;0.10;0.10;;;13.00;99.90;;;;;;5060709;28;20025;-86
2023/05/01 05:41:01;;;;;;;0.10;0.10;;;13.10;99.90;;;;;;5049647;28;20490;-83
2023/05/01 05:43:27;;;;;;;0.13;0.13;;;13.00;99.90;;;;;;5044247;28;20024;-86
2023/05/01 05:45:59;;;;;;;0.17;0.17;;;12.90;99.90;;;;;;5044110;28;20267;-83
2023/05/01 05:48:25;;;;;;;0.10;0.10;;;12.80;99.90;;;;;;5061856;28;20039;-85
2023/05/01 05:50:51;;;;;;;0.32;0.32;;;12.90;99.90;;;;;;5035149;28;20170;-84
2023/05/01 05:53:20;;;;;;;0.47;0.47;;;13.00;99.90;;;;;;5056462;28;20555;-87
2023/05/01 05:55:46;;;;;;;0.70;0.70;;;13.00;99.90;;;;;;5059766;28;20045;-87
2023/05/01 05:58:18;;;;;;;0.22;0.22;;;13.00;99.90;;;;;;5054602;28;20101;-82
2023/05/01 06:00:48;;;;;;;0.20;0.20;;;13.10;99.90;;;;;;5054109;28;21329;-87
2023/05/01 06:03:14;;;;;;;0.10;0.10;;;13.20;99.90;;;;;;5051405;28;20025;-87
2023/05/01 06:05:41;;;;;;;0.20;0.20;;;13.10;99.90;;;;;;5059509;28;20746;-87
2023/05/01 06:08:09;;;;;;;0.73;0.73;;;13.00;99.90;;;;;;5034583;28;20040;-84
2023/05/01 06:10:36;;;;;;;4.28;0.93;;;12.90;99.90;;;;;;5042915;28;20908;-83
2023/05/01 06:13:02;;;;;;;0.00;0.00;;;13.00;99.90;;;;;;5030498;28;20033;-87
2023/05/01 06:15:28;;;;;;;1.08;0.90;;;13.10;99.90;;;;;;5041289;28;20398;-84
2023/05/01 06:17:54;;;;;;;0.50;0.50;;;13.40;99.90;;;;;;5056757;28;20020;-83
2023/05/01 06:20:19;;;;;;;0.20;0.20;;;14.60;99.90;;;;;;5058912;28;20009;-90
2023/05/01 06:22:45;;;;;;;0.10;0.10;;;14.60;99.90;;;;;;5059122;28;20106;-87
2023/05/01 06:25:11;;;;;;;0.20;0.20;;;15.10;99.90;;;;;;5045446;28;20025;-85
2023/05/01 06:27:37;;;;;;;9.48;1.38;;;15.30;99.90;;;;;;5030416;28;20048;-84
2023/05/01 06:30:04;;;;;;;0.20;0.20;;;15.20;99.90;;;;;;5055723;28;20040;-84
2023/05/01 06:32:29;;;;;;;0.32;0.32;;;14.80;99.90;;;;;;5061219;28;20025;-83
2023/05/01 06:34:55;;;;;;;0.57;0.57;;;14.90;99.90;;;;;;5059207;28;20036;-81
2023/05/01 06:37:21;;;;;;;1.80;0.77;;;15.40;99.90;;;;;;5051131;28;20061;-82
2023/05/01 06:39:47;;;;;;;0.50;0.50;;;15.50;99.90;;;;;;5053646;28;20051;-82
2023/05/01 06:42:15;;;;;;;0.30;0.30;;;15.80;99.90;;;;;;5052802;28;20206;-81
2023/05/01 06:44:43;;;;;;;0.45;0.45;;;15.70;97.60;;;;;;5051192;28;20028;-83
2023/05/01 06:47:09;;;;;;;0.15;0.15;;;15.80;99.70;;;;;;5047892;28;20038;-91
2023/05/01 06:49:35;;;;;;;0.13;0.13;;;15.30;99.90;;;;;;5049299;28;20107;-80
2023/05/01 06:52:00;;;;;;;0.37;0.30;;;14.90;99.90;;;;;;5048395;28;20039;-80
2023/05/01 06:54:26;;;;;;;0.20;0.20;;;14.80;99.90;;;;;;5044945;28;20082;-82
2023/05/01 06:56:52;;;;;;;0.30;0.30;;;15.20;99.90;;;;;;5057913;28;20060;-82
2023/05/01 06:59:18;;;;;;;0.23;0.23;;;15.30;99.90;;;;;;5059944;28;20040;-82
2023/05/01 07:01:44;;;;;;;0.17;0.17;;;15.40;99.90;;;;;;5038344;28;20279;-82
2023/05/01 07:04:10;;;;;;;0.87;0.87;;;16.00;99.90;;;;;;5046019;28;20802;-80
2023/05/01 07:06:36;;;;;;;0.23;0.23;;;15.80;99.00;;;;;;5035739;28;20100;-82
2023/05/01 07:09:06;;;;;;;0.00;0.00;;;15.80;99.90;;;;;;5045122;28;20025;-78
2023/05/01 07:11:32;;;;;;;0.32;0.32;;;15.40;99.90;;;;;;5051552;28;20086;-78
2023/05/01 07:13:59;;;;;;;0.50;0.50;;;15.30;99.90;;;;;;5040800;28;20103;-79
2023/05/01 07:16:25;;;;;;;1.55;0.52;;;15.30;99.90;;;;;;5054745;28;20507;-86
2023/05/01 07:18:51;;;;;;;0.10;0.10;;;15.20;99.90;;;;;;5053553;28;20036;-85
2023/05/01 07:21:17;;;;;;;0.10;0.10;;;15.20;99.90;;;;;;5052424;28;20598;-80
2023/05/01 07:23:43;;;;;;;0.10;0.10;;;15.20;99.90;;;;;;5039251;28;20036;-83
2023/05/01 07:26:09;;;;;;;1.33;1.00;;;15.30;99.90;;;;;;5037675;28;20628;-86
2023/05/01 07:28:34;;;;;;;1.27;1.17;;;15.30;99.90;;;;;;5051145;28;20027;-83
2023/05/01 07:31:00;;;;;;;0.30;0.30;;;16.20;99.90;;;;;;5055889;28;20028;-82
2023/05/01 07:33:26;;;;;;;2.37;1.57;;;15.80;99.90;;;;;;5055133;28;20036;-85
2023/05/01 07:35:52;;;;;;;0.00;0.00;;;15.60;99.90;;;;;;5049005;28;20048;-83
2023/05/01 07:38:18;;;;;;;0.38;0.38;;;16.00;99.90;;;;;;5036591;28;20021;-83
2023/05/01 07:40:44;;;;;;;0.97;0.90;;;17.00;98.40;;;;;;5054212;28;20029;-81
2023/05/01 07:43:10;;;;;;;1.20;0.67;;;16.90;98.90;;;;;;5050907;28;20060;-82
2023/05/01 07:45:40;;;;;;;0.00;0.00;;;18.40;94.50;;;;;;5049429;28;20111;-81
2023/05/01 07:48:06;;;;;;;0.40;0.40;;;18.00;95.20;;;;;;5043339;28;20064;-79
2023/05/01 07:50:31;;;;;;;0.15;0.15;;;20.40;92.00;;;;;;5026077;28;20609;-80
2023/05/01 07:52:57;;;;;;;0.00;0.00;;;20.80;89.90;;;;;;5035234;28;20035;-80
2023/05/01 07:55:24;;;;;;;0.07;0.07;;;21.60;83.10;;;;;;5054549;28;20056;-80
2023/05/01 07:57:50;;;;;;;0.57;0.55;;;21.00;83.30;;;;;;5047251;28;20045;-80
2023/05/01 08:00:16;;;;;;;0.50;0.50;;;21.80;76.30;;;;;;5043530;28;20033;-80
2023/05/01 08:02:42;;;;;;;0.08;0.08;;;23.00;79.70;;;;;;5047485;28;20029;-80
2023/05/01 08:05:08;;;;;;;0.20;0.20;;;25.60;69.30;;;;;;5055990;28;20028;-80
2023/05/01 08:07:34;;;;;;;0.28;0.28;;;26.40;66.50;;;;;;5044309;28;20118;-80
2023/05/01 08:09:59;;;;;;;0.28;0.28;;;24.80;70.30;;;;;;5037971;28;20028;-80
2023/05/01 08:12:27;;;;;;;0.00;0.00;;;23.80;67.70;;;;;;5053141;28;20040;-80
2023/05/01 08:14:52;;;;;;;0.45;0.45;;;23.60;72.60;;;;;;5031508;28;20025;-80
2023/05/01 08:17:19;;;;;;;0.20;0.20;;;22.40;73.30;;;;;;5044065;28;20408;-80
2023/05/01 08:19:44;;;;;;;0.00;0.00;;;23.60;70.10;;;;;;5026459;28;20025;-80
2023/05/01 08:22:11;;;;;;;0.00;0.00;;;23.80;73.00;;;;;;5054614;28;20056;-80
2023/05/01 08:24:37;;;;;;;0.10;0.10;;;22.70;72.10;;;;;;5044548;28;20029;-80
2023/05/01 08:27:03;;;;;;;0.30;0.30;;;20.60;81.00;;;;;;5051100;28;20115;-80
2023/05/01 08:29:29;;;;;;;0.00;0.00;;;21.10;81.20;;;;;;5052589;28;20029;-80
2023/05/01 08:31:57;;;;;;;0.55;0.47;;;21.30;80.20;;;;;;5055670;28;20491;-80
2023/05/01 08:34:23;;;;;;;1.10;0.55;;;19.90;82.50;;;;;;5051508;28;20029;-80
2023/05/01 08:36:49;;;;;;;0.03;0.03;;;19.20;87.00;;;;;;5050088;28;20029;-80
2023/05/01 08:39:14;;;;;;;0.10;0.10;;;18.50;87.90;;;;;;5026450;28;20404;-79
2023/05/01 08:41:45;;;;;;;0.33;0.33;;;18.90;89.50;;;;;;5052224;28;20727;-82
2023/05/01 08:44:13;;;;;;;0.20;0.20;;;19.00;89.40;;;;;;5045510;28;20036;-80
2023/05/01 08:47:02;;;;;;;0.17;0.17;;;18.80;88.20;;;;;;5043307;28;20041;-83
2023/05/01 08:49:32;;;;;;;0.08;0.08;;;18.30;89.30;;;;;;5050461;28;20036;-81
2023/05/01 08:52:02;;;;;;;0.38;0.38;;;18.70;87.40;;;;;;5028523;28;20025;-79
2023/05/01 08:54:30;;;;;;;0.28;0.28;;;19.90;84.60;;;;;;5047195;28;20029;-80
2023/05/01 08:57:02;;;;;;;0.38;0.38;;;20.30;84.30;;;;;;5047296;28;20061;-80
2023/05/01 08:59:30;;;;;;;0.10;0.10;;;20.70;80.60;;;;;;5059686;28;20502;-80
2023/05/01 09:01:58;;;;;;;0.52;0.52;;;20.30;81.30;;;;;;5051295;28;20533;-79
2023/05/01 09:04:24;;;;;;;0.22;0.22;;;19.70;84.90;;;;;;5054418;28;20021;-79
2023/05/01 09:06:52;;;;;;;0.10;0.10;;;20.70;83.80;;;;;;5041838;28;20040;-80
2023/05/01 09:09:18;;;;;;;0.32;0.32;;;22.60;78.00;;;;;;5029153;28;20031;-79
2023/05/01 09:11:44;;;;;;;0.47;0.30;;;20.50;82.40;;;;;;5043721;28;20025;-79
2023/05/01 09:14:09;;;;;;;0.00;0.00;;;19.50;83.70;;;;;;5041844;28;20110;-80
2023/05/01 09:16:35;;;;;;;0.10;0.10;;;19.80;85.20;;;;;;5053837;28;20107;-77
2023/05/01 09:19:01;;;;;;;0.00;0.00;;;22.00;82.80;;;;;;5049781;28;20029;-78
2023/05/01 09:21:30;;;;;;;0.00;0.00;;;24.10;71.20;;;;;;5058516;28;20016;-77
2023/05/01 09:23:56;;;;;;;0.28;0.28;;;26.60;66.20;;;;;;5044442;28;20033;-79
2023/05/01 09:26:21;;;;;;;0.20;0.20;;;22.50;69.70;;;;;;5052694;28;20110;-79
2023/05/01 09:28:47;;;;;;;0.10;0.10;;;20.90;76.10;;;;;;5053642;28;20806;-79
2023/05/01 09:31:22;;;;;;;0.75;0.47;;;20.00;79.50;;;;;;5045987;28;20033;-79
2023/05/01 09:33:59;;;;;;;0.30;0.30;;;19.50;81.40;;;;;;5050519;28;20026;-79
2023/05/01 09:36:29;;;;;;;0.50;0.50;;;19.30;82.50;;;;;;5038160;28;20110;-79
2023/05/01 09:38:56;;;;;;;0.20;0.20;;;19.10;83.40;;;;;;5051094;28;20504;-79
2023/05/01 09:41:22;;;;;;;0.10;0.10;;;18.90;84.00;;;;;;5046283;28;20051;-79
2023/05/01 09:44:16;;;;;;;0.00;0.00;;;20.10;83.10;;;;;;5032077;28;20350;-79
2023/05/01 09:46:42;;;;;;;0.03;0.03;;;25.60;71.10;;;;;;5050578;28;20047;-79
2023/05/01 09:49:08;;;;;;;1.08;0.70;;;25.50;63.20;;;;;;5052554;28;20035;-79
2023/05/01 09:51:34;;;;;;;0.23;0.23;;;26.60;60.20;;;;;;5053590;28;20398;-79
2023/05/01 09:54:01;;;;;;;0.00;0.00;;;26.30;58.00;;;;;;5042027;28;20112;-79
2023/05/01 09:56:30;;;;;;;0.28;0.28;;;28.30;58.90;;;;;;5042979;28;20808;-79
2023/05/01 09:59:12;;;;;;;0.98;0.88;;;29.70;55.30;;;;;;5024406;28;20057;-79
2023/05/01 10:01:39;;;;;;;0.80;0.40;;;29.50;52.50;;;;;;5055258;28;20039;-79
2023/05/01 10:04:05;;;;;;;0.32;0.32;;;29.60;50.80;;;;;;5061691;28;20074;-79
2023/05/01 10:06:31;;;;;;;0.15;0.15;;;27.00;56.70;;;;;;5049523;28;20040;-80
2023/05/01 10:08:57;;;;;;;0.00;0.00;;;23.70;63.40;;;;;;5044477;28;20489;-79
2023/05/01 10:11:23;;;;;;;0.20;0.20;;;22.30;68.30;;;;;;5059537;28;20293;-79
2023/05/01 10:14:08;;;;;;;0.00;0.00;;;21.10;73.10;;;;;;5062517;28;20039;-79
2023/05/01 10:16:36;;;;;;;0.10;0.10;;;20.90;70.60;;;;;;5051274;28;20031;-79
2023/05/01 10:19:03;;;;;;;0.10;0.10;;;20.10;69.90;;;;;;5059813;28;20107;-79
2023/05/01 10:21:29;;;;;;;;;;;21.10;73.00;;;;;;5061440;28;20092;-79
2023/05/01 10:23:55;;;;;;;0.10;0.10;;;26.10;62.90;;;;;;5059808;28;19974;-80
2023/05/01 10:26:22;;;;;;;0.10;0.10;;;26.00;58.90;;;;;;5060379;28;20064;-80
2023/05/01 10:28:48;;;;;;;0.10;0.10;;;25.30;60.50;;;;;;5056822;28;20718;-79
2023/05/01 10:31:14;;;;;;;;;;;25.20;63.20;;;;;;5050774;28;20032;-79
2023/05/01 10:33:41;;;;;;;;;;;25.30;63.60;;;;;;5059298;28;19912;-79
2023/05/01 10:36:29;;;;;;;0.05;0.05;;;25.50;60.40;;;;;;5038673;28;20038;-79
2023/05/01 10:38:57;;;;;;;0.25;0.25;;;24.40;66.30;;;;;;5053965;28;20039;-80
2023/05/01 10:41:56;;;;;;;0.40;0.40;;;24.40;66.40;;;;;;5056352;28;20024;-80
2023/05/01 10:44:23;;;;;;;0.30;0.30;;;23.20;66.80;;;;;;5049296;28;20120;-80
2023/05/01 10:46:49;;;;;;;0.15;0.15;;;21.80;68.30;;;;;;5033987;28;20041;-80
2023/05/01 10:49:16;;;;;;;0.00;0.00;;;20.60;72.00;;;;;;5056903;28;20479;-81
2023/05/01 10:51:57;;;;;;;1.35;1.08;;;19.10;83.30;;;;;;5060876;28;20384;-80
2023/05/01 10:54:30;;;;;;;0.00;0.00;;;18.80;82.40;;;;;;5049900;28;20029;-80
2023/05/01 10:56:58;;;;;;;1.08;0.57;;;19.20;83.80;;;;;;5057169;28;20063;-79
2023/05/01 10:59:24;;;;;;;0.10;0.10;;;19.20;82.80;;;;;;5053803;28;20036;-80
2023/05/01 11:01:50;;;;;;;;;;;19.50;84.20;;;;;;5058720;28;20029;-80
2023/05/01 11:04:20;;;;;;;0.10;0.10;;;19.60;82.00;;;;;;5057370;28;19931;-80
2023/05/01 11:07:04;;;;;;;0.00;0.00;;;20.20;81.60;;;;;;5054368;28;20048;-80
2023/05/01 11:09:40;;;;;;;0.08;0.08;;;20.40;82.50;;;;;;5050732;28;20036;-80
2023/05/01 11:12:08;;;;;;;0.05;0.05;;;20.70;82.30;;;;;;5057994;28;20027;-80
2023/05/01 11:14:52;;;;;;;0.10;0.10;;;21.60;80.10;;;;;;5042389;28;20078;-80
2023/05/01 11:17:39;;;;;;;0.00;0.00;;;21.40;80.80;;;;;;5059997;28;20032;-80
2023/05/01 11:20:10;;;;;;;0.40;0.40;;;21.40;79.50;;;;;;5052519;28;20079;-80
2023/05/01 11:22:38;;;;;;;0.75;0.75;;;20.90;77.40;;;;;;5039508;28;20033;-80
2023/05/01 11:25:17;;;;;;;0.40;0.25;;;20.80;79.10;;;;;;5058429;28;20108;-80
2023/05/01 11:27:57;;;;;;;0.00;0.00;;;19.70;76.80;;;;;;5057246;28;20570;-80
2023/05/01 11:30:23;;;;;;;0.13;0.13;;;19.40;80.50;;;;;;5059158;28;20922;-79
2023/05/01 11:32:50;;;;;;;0.20;0.20;;;19.60;80.50;;;;;;5057955;28;20051;-79
2023/05/01 11:35:20;;;;;;;0.38;0.38;;;19.40;84.30;;;;;;5057013;28;20029;-80
2023/05/01 11:37:47;;;;;;;0.20;0.10;;;19.20;89.00;;;;;;5054914;28;20032;-80
2023/05/01 11:40:20;;;;;;;0.40;0.40;;;18.90;90.70;;;;;;5052928;28;20025;-79
2023/05/01 11:42:46;;;;;;;0.10;0.10;;;19.20;92.20;;;;;;5051640;28;20078;-80
2023/05/01 11:45:12;;;;;;;2.73;0.97;;;19.00;90.60;;;;;;5037368;28;20029;-79
2023/05/01 11:47:38;;;;;;;0.10;0.10;;;19.60;87.60;;;;;;5052812;28;20040;-80
2023/05/01 11:50:06;;;;;;;0.20;0.20;;;19.40;87.10;;;;;;5059220;28;20271;-80
2023/05/01 11:52:42;;;;;;;0.00;0.00;;;18.60;90.60;;;;;;5058914;28;20029;-80
2023/05/01 11:55:09;;;;;;;0.00;0.00;;;18.90;90.30;;;;;;5058963;28;20032;-80
2023/05/01 11:57:49;;;;;;;0.20;0.20;;;18.80;86.50;;;;;;5039507;28;20664;-80
2023/05/01 12:00:25;;;;;;;0.20;0.20;;;18.90;82.80;;;;;;5060481;28;20040;-80
2023/05/01 12:02:56;;;;;;;0.30;0.30;;;19.00;85.80;;;;;;5061564;28;20021;-80
2023/05/01 12:05:23;;;;;;;0.10;0.10;;;18.70;83.70;;;;;;5062755;28;20599;-80
2023/05/01 12:07:49;;;;;;;0.10;0.10;;;18.90;89.90;;;;;;5062510;28;20028;-80
2023/05/01 12:10:16;;;;;;;0.10;0.10;;;18.90;91.50;;;;;;5058898;28;20490;-80
2023/05/01 12:12:42;;;;;;;1.10;0.50;;;19.10;91.70;;;;;;5060530;28;20031;-80
2023/05/01 12:15:08;;;;;;;0.10;0.10;;;18.90;94.50;;;;;;5064189;28;20023;-80
2023/05/01 12:17:35;;;;;;;0.20;0.20;;;19.20;95.20;;;;;;5062047;28;20497;-80
2023/05/01 12:20:01;;;;;;;0.20;0.20;;;19.10;95.10;;;;;;5062851;28;20052;-80
2023/05/01 12:22:28;;;;;;;0.00;0.00;;;19.10;95.00;;;;;;5061238;28;20029;-79
2023/05/01 12:24:54;;;;;;;0.40;0.40;;;19.20;96.10;;;;;;5061896;28;20048;-80
2023/05/01 12:27:20;;;;;;;0.00;0.00;;;19.30;93.70;;;;;;5051303;28;20571;-79
2023/05/01 12:29:47;;;;;;;0.00;0.00;;;19.50;93.00;;;;;;5053872;28;20259;-79
2023/05/01 12:32:15;;;;;;;0.03;0.03;;;19.60;93.30;;;;;;5060473;28;20052;-79
2023/05/01 12:34:41;;;;;;;0.10;0.10;;;19.90;93.40;;;;;;5063144;28;20031;-80
2023/05/01 12:37:08;;;;;;;0.43;0.43;;;19.60;92.50;;;;;;5056053;28;20024;-80
2023/05/01 12:39:39;;;;;;;0.00;0.00;;;19.50;89.30;;;;;;5058494;28;20029;-80
2023/05/01 12:42:13;;;;;;;0.00;0.00;;;19.60;91.00;;;;;;5056769;28;20021;-79
2023/05/01 12:44:39;;;;;;;0.22;0.22;;;19.50;83.60;;;;;;5040606;28;20032;-79
2023/05/01 12:47:06;;;;;;;1.42;1.10;;;19.70;88.20;;;;;;5035847;28;20064;-79
2023/05/01 12:49:35;;;;;;;0.43;0.20;;;19.90;83.70;;;;;;5039771;28;20421;-80
2023/05/01 12:52:03;;;;;;;0.10;0.10;;;20.00;85.10;;;;;;5058033;28;20815;-80